createdAt,value
2023-03-15T00:01:27.316Z,4.80
2023-03-15T00:06:51.801Z,5.03
2023-03-15T00:12:14.249Z,5.30
2023-03-15T00:17:37.500Z,5.78
2023-03-15T00:23:08.156Z,7.65
2023-03-15T00:28:31.861Z,9.05
2023-03-15T00:33:55.252Z,9.05
2023-03-15T00:39:20.604Z,7.32
2023-03-15T00:44:43.425Z,7.72
2023-03-15T00:50:05.961Z,7.72
2023-03-15T00:55:30.193Z,6.95
2023-03-15T01:00:52.990Z,6.70
2023-03-15T01:06:16.850Z,5.93
2023-03-15T01:11:40.780Z,6.13
2023-03-15T01:17:03.032Z,6.57
2023-03-15T01:22:28.397Z,5.93
2023-03-15T01:27:57.634Z,6.38
2023-03-15T01:33:25.990Z,6.22
2023-03-15T01:38:53.921Z,5.47
2023-03-15T01:44:48.925Z,5.47
2023-03-15T01:50:15.164Z,5.53
2023-03-15T01:55:42.173Z,7.50
2023-03-15T02:01:14.519Z,5.78
2023-03-15T02:06:46.635Z,5.65
2023-03-15T02:12:15.938Z,5.03
2023-03-15T02:17:46.295Z,4.18
2023-03-15T02:23:16.207Z,4.10
2023-03-15T02:28:40.682Z,3.05
2023-03-15T02:34:09.472Z,3.40
2023-03-15T02:39:37.833Z,3.33
2023-03-15T02:45:09.013Z,2.40
2023-03-15T02:50:33.977Z,3.63
2023-03-15T02:56:03.559Z,3.55
2023-03-15T03:01:28.961Z,3.70
2023-03-15T03:06:52.669Z,4.40
2023-03-15T03:12:24.885Z,2.63
2023-03-15T03:17:51.302Z,3.45
2023-03-15T03:23:16.331Z,3.72
2023-03-15T03:28:42.238Z,3.42
2023-03-15T03:34:15.524Z,3.80
2023-03-15T03:39:38.466Z,3.25
2023-03-15T03:45:07.050Z,3.30
2023-03-15T03:50:42.148Z,3.97
2023-03-15T03:56:10.871Z,3.03
2023-03-15T04:01:39.906Z,5.07
2023-03-15T04:07:10.444Z,4.60
2023-03-15T04:12:41.945Z,3.60
2023-03-15T04:18:11.761Z,5.80
2023-03-15T04:23:38.662Z,3.45
2023-03-15T04:29:31.418Z,3.70
2023-03-15T04:35:22.679Z,2.88
2023-03-15T04:40:59.490Z,3.40
2023-03-15T04:46:43.530Z,2.40
2023-03-15T04:52:45.612Z,2.95
2023-03-15T04:58:40.268Z,3.03
2023-03-15T05:04:28.380Z,4.57
2023-03-15T05:10:12.115Z,3.35
2023-03-15T05:16:07.527Z,3.70
2023-03-15T05:21:54.732Z,3.58
2023-03-15T05:27:34.038Z,4.25
2023-03-15T05:33:25.439Z,2.90
2023-03-15T05:39:06.720Z,3.75
2023-03-15T05:45:02.596Z,3.08
2023-03-15T05:50:54.033Z,2.78
2023-03-15T05:56:34.566Z,3.10
2023-03-15T06:02:15.847Z,2.67
2023-03-15T06:07:55.724Z,3.00
2023-03-15T06:13:19.759Z,2.20
2023-03-15T06:18:43.380Z,2.42
2023-03-15T06:24:07.767Z,2.78
2023-03-15T06:29:31.302Z,2.92
2023-03-15T06:34:55.169Z,2.67
2023-03-15T06:40:20.021Z,2.20
2023-03-15T06:45:45.752Z,2.28
2023-03-15T06:51:09.304Z,2.30
2023-03-15T06:56:37.293Z,3.03
2023-03-15T07:02:00.372Z,2.55
2023-03-15T07:07:22.725Z,2.50
2023-03-15T07:12:47.422Z,2.88
2023-03-15T07:18:10.806Z,3.75
2023-03-15T07:23:34.034Z,2.97
2023-03-15T07:28:58.398Z,3.17
2023-03-15T07:34:21.760Z,3.20
2023-03-15T07:39:44.824Z,3.80
2023-03-15T07:45:09.390Z,3.78
2023-03-15T07:50:32.529Z,3.17
2023-03-15T07:55:55.366Z,5.22
2023-03-15T08:01:19.745Z,4.60
2023-03-15T08:06:42.579Z,5.93
2023-03-15T08:12:05.706Z,4.55
2023-03-15T08:17:28.972Z,5.07
2023-03-15T08:22:58.202Z,5.65
2023-03-15T08:28:24.258Z,4.43
2023-03-15T08:33:54.470Z,5.60
2023-03-15T08:39:24.059Z,5.45
2023-03-15T08:44:47.507Z,5.05
2023-03-15T08:50:15.194Z,4.78
2023-03-15T08:55:44.228Z,4.63
2023-03-15T09:06:37.249Z,5.15
2023-03-15T09:12:00.868Z,5.15
2023-03-15T09:17:24.456Z,5.40
2023-03-15T09:22:54.944Z,4.68
2023-03-15T09:28:20.664Z,4.85
2023-03-15T09:33:46.905Z,5.00
2023-03-15T09:39:17.026Z,4.70
2023-03-15T09:44:48.204Z,5.57
2023-03-15T09:50:18.097Z,5.38
2023-03-15T09:55:50.203Z,5.80
2023-03-15T10:01:14.581Z,5.80
2023-03-15T10:06:38.525Z,6.10
2023-03-15T10:12:11.673Z,5.43
2023-03-15T10:17:48.224Z,4.95
2023-03-15T10:23:14.096Z,7.90
2023-03-15T10:28:44.905Z,6.13
2023-03-15T10:34:09.879Z,5.57
2023-03-15T10:39:38.958Z,5.80
2023-03-15T10:45:15.685Z,6.50
2023-03-15T10:50:43.614Z,5.70
2023-03-15T10:56:17.265Z,4.80
2023-03-15T11:01:48.211Z,6.22
2023-03-15T11:07:13.515Z,7.17
2023-03-15T11:12:36.263Z,5.70
2023-03-15T11:18:07.953Z,6.82
2023-03-15T11:29:02.613Z,6.95
2023-03-15T11:34:42.469Z,6.30
2023-03-15T11:40:12.170Z,6.75
2023-03-15T11:45:41.583Z,7.80
2023-03-15T11:51:33.668Z,7.75
2023-03-15T11:57:03.502Z,8.85
2023-03-15T12:02:48.652Z,8.52
2023-03-15T12:08:20.161Z,8.70
2023-03-15T12:13:52.437Z,7.00
2023-03-15T12:19:23.009Z,7.15
2023-03-15T12:24:52.408Z,7.40
2023-03-15T12:30:20.545Z,7.32
2023-03-15T12:35:50.005Z,6.40
2023-03-15T12:47:01.165Z,7.43
2023-03-15T12:52:41.366Z,7.60
2023-03-15T12:58:04.729Z,7.22
2023-03-15T13:03:35.235Z,8.50
2023-03-15T13:09:06.798Z,8.07
2023-03-15T13:14:40.642Z,8.20
2023-03-15T13:20:15.273Z,8.73
2023-03-15T13:25:47.142Z,6.72
2023-03-15T13:31:20.912Z,6.22
2023-03-15T13:36:54.699Z,7.15
2023-03-15T13:42:24.894Z,6.07
2023-03-15T13:47:48.846Z,7.05
2023-03-15T13:53:19.893Z,7.70
2023-03-15T13:58:43.931Z,7.22
2023-03-15T14:04:15.264Z,6.15
2023-03-15T14:09:45.591Z,6.32
2023-03-15T14:15:15.434Z,5.75
2023-03-15T14:20:45.783Z,6.20
2023-03-15T14:26:14.932Z,5.97
2023-03-15T14:31:47.514Z,5.70
2023-03-15T14:37:30.081Z,5.05
2023-03-15T14:43:00.659Z,6.13
2023-03-15T14:48:30.489Z,5.30
2023-03-15T14:53:54.515Z,5.38
2023-03-15T14:59:24.652Z,5.80
2023-03-15T15:04:53.544Z,5.82
2023-03-15T15:10:23.444Z,6.90
2023-03-15T15:15:56.594Z,5.68
2023-03-15T15:21:22.738Z,5.30
2023-03-15T15:26:49.439Z,6.03
2023-03-15T15:32:19.231Z,5.18
2023-03-15T15:37:45.829Z,6.22
2023-03-15T15:43:13.929Z,5.43
2023-03-15T15:48:41.834Z,7.80
2023-03-15T15:54:13.590Z,4.53
2023-03-15T15:59:42.138Z,4.55
2023-03-15T16:05:12.582Z,6.50
2023-03-15T16:10:36.019Z,4.95
2023-03-15T16:16:04.249Z,5.72
2023-03-15T16:21:37.619Z,5.70
2023-03-15T16:27:07.724Z,5.47
2023-03-15T16:32:43.812Z,4.95
2023-03-15T16:38:16.422Z,5.63
2023-03-15T16:43:47.322Z,5.25
2023-03-15T16:49:12.704Z,5.72
2023-03-15T16:54:41.567Z,6.10
2023-03-15T17:00:12.759Z,5.65
2023-03-15T17:05:37.370Z,6.57
2023-03-15T17:11:07.653Z,4.55
2023-03-15T17:16:32.957Z,6.07
2023-03-15T17:22:03.655Z,5.95
2023-03-15T17:27:35.530Z,6.45
2023-03-15T17:32:58.746Z,6.85
2023-03-15T17:38:34.086Z,6.22
2023-03-15T17:44:05.082Z,6.10
2023-03-15T17:49:32.099Z,5.80
2023-03-15T17:54:58.354Z,7.30
2023-03-15T18:00:32.453Z,5.90
2023-03-15T18:05:56.213Z,7.20
2023-03-15T18:11:24.722Z,6.97
2023-03-15T18:16:49.593Z,6.00
2023-03-15T18:27:45.173Z,8.30
2023-03-15T18:33:11.589Z,8.68
2023-03-15T18:38:40.315Z,8.40
2023-03-15T18:44:10.181Z,8.05
2023-03-15T18:49:35.626Z,9.88
2023-03-15T18:55:04.319Z,9.88
2023-03-15T19:00:36.440Z,8.87
2023-03-15T19:06:07.748Z,9.48
2023-03-15T19:11:41.647Z,10.23
2023-03-15T19:17:05.739Z,9.38
2023-03-15T19:22:35.575Z,11.27
2023-03-15T19:28:04.589Z,10.48
2023-03-15T19:33:32.837Z,10.53
2023-03-15T19:38:57.552Z,9.90
2023-03-15T19:44:27.388Z,8.05
2023-03-15T19:49:58.213Z,7.27
2023-03-15T19:55:27.944Z,6.68
2023-03-15T20:00:57.267Z,6.47
2023-03-15T20:06:21.497Z,6.97
2023-03-15T20:11:52.165Z,6.30
2023-03-15T20:17:15.175Z,6.85
2023-03-15T20:22:45.023Z,7.03
2023-03-15T20:28:11.213Z,7.18
2023-03-15T20:33:40.377Z,6.30
2023-03-15T20:39:07.584Z,5.63
2023-03-15T20:44:37.268Z,6.90
2023-03-15T20:50:06.102Z,7.13
2023-03-15T20:55:29.270Z,8.35
2023-03-15T21:01:06.807Z,9.15
2023-03-15T21:06:29.653Z,10.73
2023-03-15T21:11:58.445Z,11.50
2023-03-15T21:17:22.751Z,12.65
2023-03-15T21:22:51.663Z,12.63
2023-03-15T21:28:15.910Z,11.70
2023-03-15T21:33:45.758Z,11.38
2023-03-15T21:39:09.738Z,11.95
2023-03-15T21:44:33.857Z,12.05
2023-03-15T21:50:03.322Z,11.63
2023-03-15T21:55:27.592Z,12.57
2023-03-15T22:00:59.770Z,13.18
2023-03-15T22:06:25.674Z,14.75
2023-03-15T22:11:51.415Z,16.85
2023-03-15T22:17:14.974Z,17.55
2023-03-15T22:22:41.755Z,18.25
2023-03-15T22:28:07.250Z,19.55
2023-03-15T22:33:36.196Z,19.02
2023-03-15T22:39:03.976Z,17.88
2023-03-15T22:44:30.405Z,19.00
2023-03-15T22:49:59.846Z,19.85
2023-03-15T22:55:26.015Z,22.05
2023-03-15T23:00:53.354Z,14.50
2023-03-15T23:06:16.719Z,10.10
2023-03-15T23:11:41.411Z,9.18
2023-03-15T23:17:08.459Z,9.20
2023-03-15T23:22:34.552Z,10.82
2023-03-15T23:28:05.013Z,13.10
2023-03-15T23:33:34.202Z,14.30
2023-03-15T23:38:56.877Z,16.58
2023-03-15T23:44:20.754Z,16.90
2023-03-15T23:49:44.145Z,19.35
2023-03-15T23:55:07.713Z,18.02
